Time;durP1;ratioP1;P1;durP2;ratioP2;P2;SDS_P1;SDS_P2;PMS_P1;PMS_P2;Temp;Humidity;BMP_temperature;BMP_pressure;BME280_temperature;BME280_humidity;BME280_pressure;Samples;Min_cycle;Max_cycle;Signal;HPM_P1;HPM_P2
2020/12/12 00:01:48;;;;;;;;;;;8.20;99.90;;;;;;5039357;28;19909;-76
2020/12/12 00:04:14;;;;;;;;;;;8.20;99.90;;;;;;5033728;28;19955;-76
2020/12/12 00:06:40;;;;;;;;;;;8.20;99.90;;;;;;5033787;28;20071;-76
2020/12/12 00:09:05;;;;;;;;;;;8.20;99.90;;;;;;5029802;28;19923;-76
2020/12/12 00:11:31;;;;;;;;;;;8.30;99.90;;;;;;5046836;28;20000;-76
2020/12/12 00:13:57;;;;;;;;;;;8.20;99.90;;;;;;5030276;28;20584;-76
2020/12/12 00:16:22;;;;;;;;;;;8.20;99.90;;;;;;5034905;28;20422;-76
2020/12/12 00:18:48;;;;;;;;;;;8.20;99.90;;;;;;5034216;28;19916;-76
2020/12/12 00:21:15;;;;;;;;;;;8.20;99.90;;;;;;5034723;28;19916;-76
2020/12/12 00:23:41;;;;;;;;;;;8.20;99.90;;;;;;5054626;28;20347;-76
2020/12/12 00:26:07;;;;;;;;;;;8.10;99.90;;;;;;5055488;28;19908;-76
2020/12/12 00:28:34;;;;;;;;;;;8.10;99.90;;;;;;5036422;28;19948;-76
2020/12/12 00:31:00;;;;;;;;;;;8.20;99.90;;;;;;5034727;28;19909;-76
2020/12/12 00:33:25;;;;;;;;;;;8.20;99.90;;;;;;5035217;28;19909;-76
2020/12/12 00:35:51;;;;;;;;;;;8.20;99.90;;;;;;5034646;28;19995;-76
2020/12/12 00:38:17;;;;;;;;;;;8.20;99.90;;;;;;5033605;28;19913;-76
2020/12/12 00:40:43;;;;;;;;;;;8.20;99.90;;;;;;5033340;28;19963;-76
2020/12/12 00:43:08;;;;;;;;;;;8.10;99.90;;;;;;5035074;28;19909;-76
2020/12/12 00:45:34;;;;;;;;;;;8.10;99.90;;;;;;5035075;28;20237;-76
2020/12/12 00:47:59;;;;;;;;;;;8.10;99.90;;;;;;5033570;28;20334;-76
2020/12/12 00:50:25;;;;;;;;;;;8.10;99.90;;;;;;5034212;28;20000;-76
2020/12/12 00:52:51;;;;;;;;;;;8.10;99.90;;;;;;5047916;28;19909;-76
2020/12/12 00:55:16;;;;;;;;;;;8.00;99.90;;;;;;5053902;28;19939;-76
2020/12/12 00:57:44;;;;;;;;;;;8.00;99.90;;;;;;5041659;28;19956;-76
2020/12/12 01:00:10;;;;;;;;;;;8.00;99.90;;;;;;5034046;28;19909;-76
2020/12/12 01:02:35;;;;;;;;;;;7.90;99.90;;;;;;5034251;28;19955;-76
2020/12/12 01:05:01;;;;;;;;;;;7.90;99.90;;;;;;5033864;28;19963;-76
2020/12/12 01:07:27;;;;;;;;;;;7.90;99.90;;;;;;5032466;28;19916;-76
2020/12/12 01:09:53;;;;;;;;;;;7.90;99.90;;;;;;5033351;28;19908;-77
2020/12/12 01:12:18;;;;;;;;;;;7.90;99.90;;;;;;5033920;28;19951;-76
2020/12/12 01:14:45;;;;;;;;;;;8.00;99.90;;;;;;5041717;28;19958;-77
2020/12/12 01:17:10;;;;;;;;;;;8.00;99.90;;;;;;5047722;28;20307;-77
2020/12/12 01:19:36;;;;;;;;;;;8.10;99.90;;;;;;5033301;28;19909;-76
2020/12/12 01:22:02;;;;;;;;;;;8.10;99.90;;;;;;5033903;28;20238;-76
2020/12/12 01:24:27;;;;;;;;;;;8.20;99.90;;;;;;5033888;28;19940;-76
2020/12/12 01:26:53;;;;;;;;;;;8.20;99.90;;;;;;5032037;28;19948;-76
2020/12/12 01:29:19;;;;;;;;;;;8.20;99.90;;;;;;5033479;28;19939;-76
2020/12/12 01:31:47;;;;;;;;;;;8.20;99.90;;;;;;5035428;28;20004;-76
2020/12/12 01:34:12;;;;;;;;;;;8.20;99.90;;;;;;5037216;28;19913;-76
2020/12/12 01:36:38;;;;;;;;;;;8.20;99.90;;;;;;5035436;28;19939;-76
2020/12/12 01:39:04;;;;;;;;;;;8.20;99.90;;;;;;5037419;28;19909;-76
2020/12/12 01:41:29;;;;;;;;;;;8.20;99.90;;;;;;5036767;28;19940;-76
2020/12/12 01:43:55;;;;;;;;;;;8.20;99.90;;;;;;5052892;28;19908;-76
2020/12/12 01:46:25;;;;;;;;;;;8.20;99.90;;;;;;5037124;28;19920;-76
2020/12/12 01:48:51;;;;;;;;;;;8.30;99.90;;;;;;5050609;28;19987;-76
2020/12/12 01:51:17;;;;;;;;;;;8.20;99.90;;;;;;5007690;28;855473;-76
2020/12/12 01:53:43;;;;;;;;;;;8.10;99.90;;;;;;5037920;28;19976;-76
2020/12/12 01:56:09;;;;;;;;;;;8.10;99.90;;;;;;5037479;28;19913;-76
2020/12/12 01:58:35;;;;;;;;;;;8.00;99.90;;;;;;5036350;28;19996;-76
2020/12/12 02:01:00;;;;;;;;;;;7.90;99.90;;;;;;5036776;28;20402;-76
2020/12/12 02:03:27;;;;;;;;;;;7.90;99.90;;;;;;5052626;28;19997;-76
2020/12/12 02:05:53;;;;;;;;;;;7.90;99.90;;;;;;5051039;28;19909;-76
2020/12/12 02:08:19;;;;;;;;;;;7.90;99.90;;;;;;5035618;28;19962;-76
2020/12/12 02:10:46;;;;;;;;;;;7.90;99.90;;;;;;5036003;28;20004;-76
2020/12/12 02:13:12;;;;;;;;;;;7.90;99.90;;;;;;5036193;28;20352;-76
2020/12/12 02:15:38;;;;;;;;;;;7.90;99.90;;;;;;5049453;28;19912;-76
2020/12/12 02:18:05;;;;;;;;;;;7.90;99.90;;;;;;5055401;28;20271;-76
2020/12/12 02:20:30;;;;;;;;;;;8.00;99.90;;;;;;5055120;28;19913;-77
2020/12/12 02:22:56;;;;;;;;;;;8.00;99.90;;;;;;5055329;28;19909;-76
2020/12/12 02:25:22;;;;;;;;;;;8.00;99.90;;;;;;5055219;28;19908;-76
2020/12/12 02:27:50;;;;;;;;;;;8.00;99.90;;;;;;5054892;28;19909;-76
2020/12/12 02:30:17;;;;;;;;;;;8.10;99.90;;;;;;5071342;28;20310;-77
2020/12/12 02:32:42;;;;;;;;;;;8.10;99.90;;;;;;5055499;28;20378;-76
2020/12/12 02:35:08;;;;;;;;;;;8.10;99.90;;;;;;5054853;28;19912;-76
2020/12/12 02:37:34;;;;;;;;;;;8.10;99.90;;;;;;5055132;28;19986;-76
2020/12/12 02:39:59;;;;;;;;;;;8.10;99.90;;;;;;5055004;28;20414;-76
2020/12/12 02:42:25;;;;;;;;;;;8.10;99.90;;;;;;5054899;28;19916;-76
2020/12/12 02:44:51;;;;;;;;;;;8.10;99.90;;;;;;5045474;28;20333;-76
2020/12/12 02:47:17;;;;;;;;;;;8.10;99.90;;;;;;5035537;28;19940;-76
2020/12/12 02:49:43;;;;;;;;;;;8.20;99.90;;;;;;5034916;28;19917;-76
2020/12/12 02:52:09;;;;;;;;;;;8.20;99.90;;;;;;5050669;28;20361;-76
2020/12/12 02:54:35;;;;;;;;;;;8.20;99.90;;;;;;5034940;28;20055;-76
2020/12/12 02:57:00;;;;;;;;;;;8.20;99.90;;;;;;5035224;28;20280;-76
2020/12/12 02:59:26;;;;;;;;;;;8.20;99.90;;;;;;5035171;28;20268;-76
2020/12/12 03:01:52;;;;;;;;;;;8.00;99.90;;;;;;5035821;28;19909;-77
2020/12/12 03:04:17;;;;;;;;;;;7.90;99.90;;;;;;5035210;28;19915;-76
2020/12/12 03:06:46;;;;;;;;;;;7.80;99.90;;;;;;5034848;28;19909;-76
2020/12/12 03:09:11;;;;;;;;;;;7.80;99.90;;;;;;5034803;28;19913;-76
2020/12/12 03:11:37;;;;;;;;;;;7.70;99.90;;;;;;5035076;28;19913;-76
2020/12/12 03:14:03;;;;;;;;;;;7.70;99.90;;;;;;5034773;28;19916;-76
2020/12/12 03:16:29;;;;;;;;;;;7.70;99.90;;;;;;5038373;28;19912;-76
2020/12/12 03:18:55;;;;;;;;;;;7.70;99.90;;;;;;5054625;28;19909;-76
2020/12/12 03:21:20;;;;;;;;;;;7.60;99.90;;;;;;5054584;28;19912;-76
2020/12/12 03:23:46;;;;;;;;;;;7.60;99.90;;;;;;5054692;28;19948;-77
2020/12/12 03:26:12;;;;;;;;;;;7.50;99.90;;;;;;5039585;28;19909;-76
2020/12/12 03:28:37;;;;;;;;;;;7.60;99.90;;;;;;5034660;28;19963;-76
2020/12/12 03:31:03;;;;;;;;;;;7.50;99.90;;;;;;5034511;28;19909;-76
2020/12/12 03:33:29;;;;;;;;;;;7.50;99.90;;;;;;5034454;28;20271;-77
2020/12/12 03:35:54;;;;;;;;;;;7.50;99.90;;;;;;5034271;28;19913;-76
2020/12/12 03:38:20;;;;;;;;;;;7.60;99.90;;;;;;5034390;28;19917;-76
2020/12/12 03:40:46;;;;;;;;;;;7.50;99.90;;;;;;5034767;28;19909;-77
2020/12/12 03:43:11;;;;;;;;;;;7.50;99.90;;;;;;5034200;28;19909;-77
2020/12/12 03:45:37;;;;;;;;;;;7.50;99.90;;;;;;5066266;28;19909;-76
2020/12/12 03:48:03;;;;;;;;;;;7.50;99.90;;;;;;5053982;28;19909;-76
2020/12/12 03:50:28;;;;;;;;;;;7.60;99.90;;;;;;5053455;28;20387;-76
2020/12/12 03:52:57;;;;;;;;;;;7.60;99.90;;;;;;5053412;28;19908;-77
2020/12/12 03:55:23;;;;;;;;;;;7.60;99.90;;;;;;5036751;28;20344;-76
2020/12/12 03:57:49;;;;;;;;;;;7.70;99.90;;;;;;5034156;28;19984;-76
2020/12/12 04:00:15;;;;;;;;;;;7.70;99.90;;;;;;5033789;28;19909;-76
2020/12/12 04:02:41;;;;;;;;;;;7.70;99.90;;;;;;5052958;28;20222;-76
2020/12/12 04:05:06;;;;;;;;;;;7.80;99.90;;;;;;5053211;28;19956;-76
2020/12/12 04:07:32;;;;;;;;;;;7.70;99.90;;;;;;5053216;28;19908;-76
2020/12/12 04:09:58;;;;;;;;;;;7.70;99.90;;;;;;5053576;28;20313;-76
2020/12/12 04:12:23;;;;;;;;;;;7.60;99.90;;;;;;5068742;28;19916;-76
2020/12/12 04:14:49;;;;;;;;;;;7.60;99.90;;;;;;5050709;28;19912;-77
2020/12/12 04:17:15;;;;;;;;;;;7.60;99.90;;;;;;5053321;28;19913;-76
2020/12/12 04:19:40;;;;;;;;;;;7.60;99.90;;;;;;5052912;28;20287;-76
2020/12/12 04:22:06;;;;;;;;;;;7.60;99.90;;;;;;5052835;28;19909;-77
2020/12/12 04:24:31;;;;;;;;;;;7.60;99.90;;;;;;5052945;28;19909;-76
2020/12/12 04:26:57;;;;;;;;;;;7.60;99.90;;;;;;5053150;28;19912;-76
2020/12/12 04:29:23;;;;;;;;;;;7.60;99.90;;;;;;5053132;28;20275;-76
2020/12/12 04:31:49;;;;;;;;;;;7.60;99.90;;;;;;5053484;28;19908;-76
2020/12/12 04:34:14;;;;;;;;;;;7.60;99.90;;;;;;5067939;28;19962;-76
2020/12/12 04:36:40;;;;;;;;;;;7.60;99.90;;;;;;5052656;28;20433;-77
2020/12/12 04:39:06;;;;;;;;;;;7.70;99.90;;;;;;5053070;28;20340;-77
2020/12/12 04:41:34;;;;;;;;;;;7.70;99.90;;;;;;5068327;28;19916;-77
2020/12/12 04:43:59;;;;;;;;;;;7.80;99.90;;;;;;5051351;28;19934;-76
2020/12/12 04:46:26;;;;;;;;;;;7.80;99.90;;;;;;5052770;28;20003;-77
2020/12/12 04:48:52;;;;;;;;;;;7.90;99.90;;;;;;5053016;28;20448;-77
2020/12/12 04:51:17;;;;;;;;;;;7.90;99.90;;;;;;5052349;28;20002;-77
2020/12/12 04:53:43;;;;;;;;;;;7.90;99.90;;;;;;5068289;28;20394;-77
2020/12/12 04:56:12;;;;;;;;;;;7.90;99.90;;;;;;5052566;28;19924;-77
2020/12/12 04:58:38;;;;;;;;;;;7.80;99.90;;;;;;5068038;28;19912;-77
2020/12/12 05:01:04;;;;;;;;;;;7.80;99.90;;;;;;5033773;28;19909;-77
2020/12/12 05:03:31;;;;;;;;;;;7.80;99.90;;;;;;5047491;28;19909;-77
2020/12/12 05:05:57;;;;;;;;;;;7.70;99.90;;;;;;5032122;28;19955;-77
2020/12/12 05:08:23;;;;;;;;;;;7.70;99.90;;;;;;5032796;28;19913;-77
2020/12/12 05:10:50;;;;;;;;;;;7.70;99.90;;;;;;5032398;28;19909;-76
2020/12/12 05:13:16;;;;;;;;;;;7.60;99.90;;;;;;5032647;28;19913;-76
2020/12/12 05:15:42;;;;;;;;;;;7.60;99.90;;;;;;5032122;28;19952;-76
2020/12/12 05:18:08;;;;;;;;;;;7.70;99.90;;;;;;5031910;28;19956;-76
2020/12/12 05:20:34;;;;;;;;;;;7.70;99.90;;;;;;5032156;28;19909;-76
2020/12/12 05:23:00;;;;;;;;;;;7.70;99.90;;;;;;5032173;28;19963;-76
2020/12/12 05:25:26;;;;;;;;;;;7.70;99.90;;;;;;5032458;28;19991;-77
2020/12/12 05:27:53;;;;;;;;;;;7.70;99.90;;;;;;5032821;28;20008;-77
2020/12/12 05:30:19;;;;;;;;;;;7.70;99.90;;;;;;5032483;28;19909;-76
2020/12/12 05:32:46;;;;;;;;;;;7.60;99.90;;;;;;5047302;28;19962;-76
2020/12/12 05:35:12;;;;;;;;;;;7.60;99.90;;;;;;5051680;28;20325;-76
2020/12/12 05:37:38;;;;;;;;;;;7.60;99.90;;;;;;5067771;28;19995;-76
2020/12/12 05:40:04;;;;;;;;;;;7.60;99.90;;;;;;5044743;28;19909;-77
2020/12/12 05:42:30;;;;;;;;;;;7.60;99.90;;;;;;5032223;28;19909;-76
2020/12/12 05:44:56;;;;;;;;;;;7.60;99.90;;;;;;5032663;28;20510;-76
2020/12/12 05:47:22;;;;;;;;;;;7.60;99.90;;;;;;5032373;28;19962;-76
2020/12/12 05:49:48;;;;;;;;;;;7.60;99.90;;;;;;5032066;28;19916;-76
2020/12/12 05:52:16;;;;;;;;;;;7.60;99.90;;;;;;5032458;28;19982;-76
2020/12/12 05:54:42;;;;;;;;;;;7.60;99.90;;;;;;5032332;28;20382;-76
2020/12/12 05:57:07;;;;;;;;;;;7.60;99.90;;;;;;5032311;28;19913;-76
2020/12/12 05:59:33;;;;;;;;;;;7.60;99.90;;;;;;5032435;28;20319;-76
2020/12/12 06:02:02;;;;;;;;;;;7.60;99.90;;;;;;5048267;28;19991;-76
2020/12/12 06:04:30;;;;;;;;;;;7.70;99.90;;;;;;5067562;28;19940;-76
2020/12/12 06:06:57;;;;;;;;;;;7.70;99.90;;;;;;5052731;28;19913;-76
2020/12/12 06:09:28;;;;;;;;;;;7.70;99.90;;;;;;5051728;28;19908;-77
2020/12/12 06:11:55;;;;;;;;;;;7.60;99.90;;;;;;5052620;28;20399;-77
2020/12/12 06:14:22;;;;;;;;;;;7.60;99.90;;;;;;5051904;28;20440;-77
2020/12/12 06:16:48;;;;;;;;;;;7.70;99.90;;;;;;5051960;28;19943;-77
2020/12/12 06:19:14;;;;;;;;;;;7.70;99.90;;;;;;5039481;28;20340;-77
2020/12/12 06:21:44;;;;;;;;;;;7.70;99.90;;;;;;5035542;28;19916;-77
2020/12/12 06:24:11;;;;;;;;;;;7.80;99.90;;;;;;5049541;28;19912;-77
2020/12/12 06:26:37;;;;;;;;;;;7.90;99.90;;;;;;5055610;28;19935;-76
2020/12/12 06:29:02;;;;;;;;;;;7.80;99.90;;;;;;5055483;28;19909;-77
2020/12/12 06:31:28;;;;;;;;;;;7.80;99.90;;;;;;5056210;28;19920;-76
2020/12/12 06:33:54;;;;;;;;;;;7.80;99.90;;;;;;5055253;28;19909;-77
2020/12/12 06:36:27;;;;;;;;;;;7.80;99.90;;;;;;5055459;28;19916;-76
2020/12/12 06:39:11;;;;;;;;;;;7.70;99.90;;;;;;5055325;28;19939;-77
2020/12/12 06:41:36;;;;;;;;;;;7.60;99.90;;;;;;5055151;28;19955;-76
2020/12/12 06:44:03;;;;;;;;;;;7.60;99.90;;;;;;5055540;28;19909;-76
2020/12/12 06:46:52;;;;;;;;;;;7.60;99.90;;;;;;5055776;28;19997;-76
2020/12/12 06:49:18;;;;;;;;;;;7.60;99.90;;;;;;5049078;28;19908;-77
2020/12/12 06:51:43;;;;;;;;;;;7.60;99.90;;;;;;5055214;28;19915;-76
2020/12/12 06:54:09;;;;;;;;;;;7.60;99.90;;;;;;5040558;28;20311;-76
2020/12/12 06:56:35;;;;;;;;;;;7.60;99.90;;;;;;5035214;28;19967;-76
2020/12/12 06:59:19;;;;;;;;;;;7.50;99.90;;;;;;5051248;28;19992;-76
2020/12/12 07:01:55;;;;;;;;;;;7.50;99.90;;;;;;5041668;28;19986;-76
2020/12/12 07:04:24;;;;;;;;;;;7.50;99.90;;;;;;5054364;28;19912;-76
2020/12/12 07:07:02;;;;;;;;;;;7.40;99.90;;;;;;5054836;28;19909;-77
2020/12/12 07:09:28;;;;;;;;;;;7.40;99.90;;;;;;5049736;28;20364;-77
2020/12/12 07:11:55;;;;;;;;;;;7.40;99.90;;;;;;5033912;28;19912;-76
2020/12/12 07:14:20;;;;;;;;;;;7.40;99.90;;;;;;5032602;28;19924;-77
2020/12/12 07:16:46;;;;;;;;;;;7.30;99.90;;;;;;5034037;28;20260;-76
2020/12/12 07:19:13;;;;;;;;;;;7.10;99.90;;;;;;5033824;28;19909;-76
2020/12/12 07:21:39;;;;;;;;;;;7.10;99.90;;;;;;5034732;28;19956;-77
2020/12/12 07:24:05;;;;;;;;;;;7.10;99.90;;;;;;5033453;28;19941;-77
2020/12/12 07:26:31;;;;;;;;;;;7.00;99.90;;;;;;5035177;28;19920;-77
2020/12/12 07:28:57;;;;;;;;;;;7.10;99.90;;;;;;5034395;28;19916;-77
2020/12/12 07:31:22;;;;;;;;;;;7.10;99.90;;;;;;5037193;28;20573;-77
2020/12/12 07:33:48;;;;;;;;;;;7.10;99.90;;;;;;5053163;28;19947;-77
2020/12/12 07:36:14;;;;;;;;;;;7.20;99.90;;;;;;5067583;28;19924;-77
2020/12/12 07:38:43;;;;;;;;;;;7.30;99.90;;;;;;5054463;28;19912;-77
2020/12/12 07:41:12;;;;;;;;;;;7.30;99.90;;;;;;5053569;28;19916;-77
2020/12/12 07:43:54;;;;;;;;;;;7.30;99.90;;;;;;5054317;28;19916;-77
2020/12/12 07:46:20;;;;;;;;;;;7.30;99.90;;;;;;5053947;28;19909;-77
2020/12/12 07:48:58;;;;;;;;;;;7.30;99.90;;;;;;5053988;28;19908;-77
2020/12/12 07:51:24;;;;;;;;;;;7.30;99.90;;;;;;5051334;28;20011;-77
2020/12/12 07:53:49;;;;;;;;;;;7.30;99.90;;;;;;5049062;28;19996;-77
2020/12/12 07:56:15;;;;;;;;;;;7.30;99.90;;;;;;5033649;28;19917;-76
2020/12/12 07:58:41;;;;;;;;;;;7.30;99.90;;;;;;5033561;28;19913;-76
2020/12/12 08:01:06;;;;;;;;;;;7.20;99.90;;;;;;5033119;28;19997;-77
2020/12/12 08:03:32;;;;;;;;;;;7.30;99.90;;;;;;5032581;28;19939;-77
2020/12/12 08:06:03;;;;;;;;;;;7.30;99.90;;;;;;5047015;28;20344;-77
2020/12/12 08:08:28;;;;;;;;;;;7.30;99.90;;;;;;5033559;28;19909;-77
2020/12/12 08:11:00;;;;;;;;;;;7.40;99.90;;;;;;5033129;28;19935;-76
2020/12/12 08:13:29;;;;;;;;;;;7.40;99.90;;;;;;5033426;28;19920;-77
2020/12/12 08:15:59;;;;;;;;;;;7.60;99.90;;;;;;5033219;28;19947;-76
2020/12/12 08:18:25;;;;;;;;;;;7.60;99.90;;;;;;5033151;28;19913;-76
2020/12/12 08:20:51;;;;;;;;;;;7.60;99.90;;;;;;5048358;28;19919;-76
2020/12/12 08:23:18;;;;;;;;;;;7.50;99.90;;;;;;5046526;28;19991;-76
2020/12/12 08:25:43;;;;;;;;;;;7.60;99.90;;;;;;5052304;28;19962;-74
2020/12/12 08:28:10;;;;;;;;;;;7.60;99.90;;;;;;5053215;28;19908;-73
2020/12/12 08:30:35;;;;;;;;;;;7.50;99.90;;;;;;5055149;28;20007;-74
2020/12/12 08:33:11;;;;;;;;;;;7.40;99.90;;;;;;5050284;28;20027;-73
2020/12/12 08:35:37;;;;;;;;;;;7.40;99.90;;;;;;5033133;28;19913;-74
2020/12/12 08:38:06;;;;;;;;;;;7.40;99.90;;;;;;5048457;28;19917;-74
2020/12/12 08:40:34;;;;;;;;;;;7.40;99.90;;;;;;5032811;28;19909;-74
2020/12/12 08:43:07;;;;;;;;;;;7.40;99.90;;;;;;5048384;28;19909;-74
2020/12/12 08:45:39;;;;;;;;;;;7.40;99.90;;;;;;5053049;28;19951;-73
2020/12/12 08:48:08;;;;;;;;;;;7.40;99.90;;;;;;5053091;28;19916;-75
2020/12/12 08:50:49;;;;;;;;;;;7.50;99.90;;;;;;5052854;28;19916;-75
2020/12/12 08:53:22;;;;;;;;;;;7.60;99.90;;;;;;5052867;28;19912;-75
2020/12/12 08:55:58;;;;;;;;;;;7.50;99.90;;;;;;5052550;28;19919;-74
2020/12/12 08:58:33;;;;;;;;;;;7.40;99.90;;;;;;5041868;28;20364;-74
2020/12/12 09:01:17;;;;;;;;;;;7.40;99.90;;;;;;5032627;28;19923;-74
2020/12/12 09:03:49;;;;;;;;;;;7.60;99.90;;;;;;5043668;28;19948;-74
2020/12/12 09:06:14;;;;;;;;;;;7.60;99.90;;;;;;5036846;28;19909;-74
2020/12/12 09:08:40;;;;;;;;;;;7.50;99.90;;;;;;5048160;28;19909;-74
2020/12/12 09:11:10;;;;;;;;;;;7.60;99.90;;;;;;5033080;28;19995;-75
2020/12/12 09:13:39;;;;;;;;;;;7.60;99.90;;;;;;5048304;28;19991;-76
2020/12/12 09:16:35;;;;;;;;;;;;;;;;;;;;;
2020/12/12 09:19:10;;;;;;;;;;;7.70;99.90;;;;;;5036674;28;19916;-76
2020/12/12 09:21:36;;;;;;;;;;;7.70;99.90;;;;;;5053635;28;20050;-74
2020/12/12 09:24:02;;;;;;;;;;;7.60;99.90;;;;;;5032001;28;19909;-75
2020/12/12 09:26:31;;;;;;;;;;;7.70;99.90;;;;;;5029486;28;19909;-75
2020/12/12 09:29:02;;;;;;;;;;;7.70;99.90;;;;;;5031930;28;19909;-75
2020/12/12 09:31:29;;;;;;;;;;;7.80;99.90;;;;;;5043849;28;20558;-76
2020/12/12 09:33:55;;;;;;;;;;;7.80;99.90;;;;;;5043904;28;20364;-77
2020/12/12 09:36:27;;;;;;;;;;;7.80;99.90;;;;;;5046335;28;19921;-75
2020/12/12 09:39:16;;;;;;;;;;;7.90;99.90;;;;;;5030131;28;19913;-76
2020/12/12 09:41:47;;;;;;;;;;;7.90;99.90;;;;;;5028483;28;19920;-75
2020/12/12 09:44:16;;;;;;;;;;;7.80;99.90;;;;;;5030350;28;20283;-75
2020/12/12 09:46:41;;;;;;;;;;;7.80;99.90;;;;;;5029758;28;19913;-76
2020/12/12 09:49:08;;;;;;;;;;;7.80;99.90;;;;;;5029850;28;19925;-75
2020/12/12 09:51:33;;;;;;;;;;;7.80;99.90;;;;;;5030135;28;20367;-76
2020/12/12 09:54:00;;;;;;;;;;;7.70;99.90;;;;;;5047791;28;19916;-75
2020/12/12 09:56:31;;;;;;;;;;;7.90;99.90;;;;;;5048796;28;19917;-74
2020/12/12 09:59:01;;;;;;;;;;;7.80;99.90;;;;;;5034195;28;19909;-75
2020/12/12 10:01:46;;;;;;;;;;;7.90;99.90;;;;;;5053036;28;20303;-74
2020/12/12 10:04:24;;;;;;;;;;;7.90;99.90;;;;;;5034843;28;19916;-75
2020/12/12 10:06:50;;;;;;;;;;;7.80;99.90;;;;;;5033860;28;19909;-74
2020/12/12 10:09:16;;;;;;;;;;;7.80;99.90;;;;;;5049251;28;19916;-75
2020/12/12 10:11:42;;;;;;;;;;;7.90;99.90;;;;;;5034268;28;20367;-77
2020/12/12 10:14:07;;;;;;;;;;;7.70;99.90;;;;;;5032760;28;19924;-76
2020/12/12 10:16:35;;;;;;;;;;;7.70;99.90;;;;;;5033080;28;19993;-74
2020/12/12 10:19:11;;;;;;;;;;;7.60;99.90;;;;;;5048829;28;19951;-72
2020/12/12 10:21:40;;;;;;;;;;;7.60;99.90;;;;;;5046968;28;20404;-73
2020/12/12 10:24:08;;;;;;;;;;;7.70;99.90;;;;;;5049792;28;19995;-72
2020/12/12 10:26:34;;;;;;;;;;;7.70;99.90;;;;;;5033782;28;20356;-72
2020/12/12 10:29:02;;;;;;;;;;;7.70;99.90;;;;;;5035190;28;19917;-71
2020/12/12 10:31:28;;;;;;;;;;;7.70;99.90;;;;;;5049720;28;19909;-71
2020/12/12 10:33:53;;;;;;;;;;;7.70;99.90;;;;;;5049316;28;20066;-73
2020/12/12 10:36:19;;;;;;;;;;;7.60;99.90;;;;;;5049072;28;19919;-74
2020/12/12 10:38:45;;;;;;;;;;;7.60;99.90;;;;;;5034440;28;19913;-70
2020/12/12 10:41:11;;;;;;;;;;;7.60;99.90;;;;;;5038288;28;20004;-70
2020/12/12 10:43:38;;;;;;;;;;;7.80;99.90;;;;;;5034620;28;19909;-69
2020/12/12 10:46:03;;;;;;;;;;;7.90;99.90;;;;;;5049381;28;19944;-70
2020/12/12 10:48:29;;;;;;;;;;;7.90;99.90;;;;;;5049946;28;19916;-69
2020/12/12 10:50:55;;;;;;;;;;;7.90;99.90;;;;;;5033889;28;19971;-70
2020/12/12 10:53:20;;;;;;;;;;;8.00;99.90;;;;;;5033979;28;19913;-70
2020/12/12 10:55:46;;;;;;;;;;;8.10;99.90;;;;;;5027189;28;19913;-70
2020/12/12 11:07:34;;;;;;;;;;;8.10;99.90;;;;;;5034440;28;20378;-72
2020/12/12 11:09:59;;;;;;;;;;;8.40;99.90;;;;;;5033116;28;19908;-71
2020/12/12 11:12:25;;;;;;;;;;;8.40;99.90;;;;;;5040055;28;19974;-71
2020/12/12 11:14:54;;;;;;;;;;;8.50;99.90;;;;;;5053963;28;19920;-71
2020/12/12 11:17:20;;;;;;;;;;;8.30;99.90;;;;;;5053938;28;19912;-71
2020/12/12 11:19:46;;;;;;;;;;;8.40;99.90;;;;;;5036132;28;20296;-72
2020/12/12 11:22:12;;;;;;;;;;;8.40;99.90;;;;;;5036914;28;19913;-71
2020/12/12 11:24:37;;;;;;;;;;;8.40;99.90;;;;;;5015381;28;19917;-71
2020/12/12 11:27:03;;;;;;;;;;;8.30;99.90;;;;;;5033418;28;19913;-71
2020/12/12 11:29:28;;;;;;;;;;;8.30;99.90;;;;;;5034014;28;19913;-71
2020/12/12 11:31:55;;;;;;;;;;;8.40;99.90;;;;;;5035364;28;20426;-71
2020/12/12 11:34:42;;;;;;;;;;;8.60;99.90;;;;;;5053673;28;19912;-71
2020/12/12 11:39:51;;;;;;;;;;;8.80;99.90;;;;;;5053109;28;20351;-71
2020/12/12 11:45:19;;;;;;;;;;;8.50;99.90;;;;;;5033863;28;19913;-70
2020/12/12 11:47:45;;;;;;;;;;;8.20;99.90;;;;;;5033688;28;19991;-70
2020/12/12 11:50:12;;;;;;;;;;;8.30;99.90;;;;;;5033912;28;19959;-69
2020/12/12 11:52:38;;;;;;;;;;;8.20;99.90;;;;;;5053804;28;19954;-70
2020/12/12 11:55:04;;;;;;;;;;;8.00;99.90;;;;;;5051861;28;19955;-71
2020/12/12 11:57:30;;;;;;;;;;;8.10;99.90;;;;;;5045787;28;19919;-71
2020/12/12 11:59:57;;;;;;;;;;;8.20;99.90;;;;;;5033974;28;19978;-71
2020/12/12 12:02:29;;;;;;;;;;;8.40;99.90;;;;;;5066444;28;19916;-72
2020/12/12 12:05:03;;;;;;;;;;;8.70;99.90;;;;;;5057810;28;20415;-74
2020/12/12 12:07:29;;;;;;;;;;;8.80;99.90;;;;;;5050336;28;20359;-74
2020/12/12 12:12:42;;;;;;;;;;;8.80;99.90;;;;;;5030637;28;20763;-70
2020/12/12 12:15:07;;;;;;;;;;;8.80;99.90;;;;;;5009904;28;19944;-71
2020/12/12 12:17:33;;;;;;;;;;;8.70;99.90;;;;;;5025871;28;19912;-71
2020/12/12 12:19:59;;;;;;;;;;;8.70;99.90;;;;;;5044512;28;19908;-71
2020/12/12 12:22:25;;;;;;;;;;;8.40;99.90;;;;;;5052352;28;20367;-71
2020/12/12 12:24:51;;;;;;;;;;;8.00;99.90;;;;;;5033888;28;19913;-71
2020/12/12 12:27:17;;;;;;;;;;;7.70;99.90;;;;;;5050889;28;20003;-71
2020/12/12 12:29:42;;;;;;;;;;;7.40;99.90;;;;;;5052528;28;19908;-71
2020/12/12 12:32:18;;;;;;;;;;;7.20;99.90;;;;;;5036398;28;19995;-71
2020/12/12 12:34:47;;;;;;;;;;;6.80;99.90;;;;;;5035017;28;20035;-71
2020/12/12 12:37:20;;;;;;;;;;;6.60;99.90;;;;;;5034884;28;19913;-71
2020/12/12 12:39:48;;;;;;;;;;;6.50;99.90;;;;;;5050178;28;19909;-71
2020/12/12 12:42:14;;;;;;;;;;;6.50;99.90;;;;;;5035638;28;19913;-71
2020/12/12 12:44:40;;;;;;;;;;;6.60;99.90;;;;;;5049565;28;20051;-71
2020/12/12 12:47:08;;;;;;;;;;;6.60;99.90;;;;;;5034064;28;19940;-70
2020/12/12 12:49:33;;;;;;;;;;;6.60;99.90;;;;;;5034295;28;20620;-71
2020/12/12 12:52:04;;;;;;;;;;;6.80;99.90;;;;;;5043059;28;19909;-71
2020/12/12 12:54:30;;;;;;;;;;;6.70;99.90;;;;;;5054650;28;19920;-70
2020/12/12 12:57:01;;;;;;;;;;;6.80;99.90;;;;;;5059567;28;19917;-71
2020/12/12 12:59:29;;;;;;;;;;;6.80;99.90;;;;;;5035010;28;19963;-71
2020/12/12 13:01:55;;;;;;;;;;;6.90;99.90;;;;;;5051742;28;19915;-71
2020/12/12 13:04:21;;;;;;;;;;;7.10;99.90;;;;;;5070092;28;19912;-70
2020/12/12 13:06:47;;;;;;;;;;;7.40;99.90;;;;;;5054933;28;19915;-71
2020/12/12 13:09:15;;;;;;;;;;;7.60;99.90;;;;;;5067955;28;19915;-71
2020/12/12 13:11:41;;;;;;;;;;;7.70;99.90;;;;;;5053265;28;19916;-70
2020/12/12 13:14:07;;;;;;;;;;;7.60;99.90;;;;;;5054010;28;20407;-71
2020/12/12 13:16:33;;;;;;;;;;;7.60;99.90;;;;;;5053673;28;20512;-70
2020/12/12 13:24:12;;;;;;;;;;;7.80;99.90;;;;;;5034732;28;19955;-70
2020/12/12 13:26:38;;;;;;;;;;;7.90;99.90;;;;;;5042166;28;19912;-70
2020/12/12 13:29:38;;;;;;;;;;;8.00;99.90;;;;;;5059011;28;19962;-70
2020/12/12 13:31:49;;;;;;;;;;;8.10;99.90;;;;;;5058632;28;19909;-70
2020/12/12 13:34:15;;;;;;;;;;;7.90;99.90;;;;;;5058455;28;19961;-70
2020/12/12 13:36:41;;;;;;;;;;;7.50;99.90;;;;;;5050931;28;19916;-70
2020/12/12 13:39:07;;;;;;;;;;;7.60;99.90;;;;;;5038946;28;20344;-70
2020/12/12 13:41:33;;;;;;;;;;;7.60;99.90;;;;;;5038818;28;20375;-70
2020/12/12 13:43:58;;;;;;;;;;;7.50;99.90;;;;;;5047482;28;19912;-70
2020/12/12 13:46:24;;;;;;;;;;;7.50;99.90;;;;;;5056934;28;19908;-70
2020/12/12 13:48:50;;;;;;;;;;;7.50;99.90;;;;;;5071846;28;19966;-70
2020/12/12 13:51:16;;;;;;;;;;;7.40;99.90;;;;;;5055981;28;19924;-71
2020/12/12 13:53:42;;;;;;;;;;;7.50;99.90;;;;;;5054259;28;19916;-71
2020/12/12 13:56:08;;;;;;;;;;;7.40;99.90;;;;;;5056177;28;19952;-71
2020/12/12 13:58:33;;;;;;;;;;;7.40;99.90;;;;;;5056070;28;19913;-70
2020/12/12 14:00:59;;;;;;;;;;;7.40;99.90;;;;;;5071377;28;19908;-71
2020/12/12 14:03:27;;;;;;;;;;;7.50;99.90;;;;;;5055442;28;20371;-71
2020/12/12 14:05:57;;;;;;;;;;;7.70;99.90;;;;;;5055803;28;19909;-71
2020/12/12 14:08:43;;;;;;;;;;;7.90;99.90;;;;;;5056376;28;19912;-71
2020/12/12 14:11:33;;;;;;;;;;;8.00;99.90;;;;;;5056193;28;20003;-70
2020/12/12 14:24:24;;;;;;;;;;;8.00;99.90;;;;;;5055402;28;19963;-70
2020/12/12 14:29:34;;;;;;;;;;;8.30;99.90;;;;;;5054932;28;19962;-73
2020/12/12 14:32:05;;;;;;;;;;;8.20;99.90;;;;;;5055391;28;20310;-73
2020/12/12 14:34:31;;;;;;;;;;;8.10;99.90;;;;;;5039779;28;20015;-76
2020/12/12 14:36:57;;;;;;;;;;;8.00;99.90;;;;;;5035962;28;19952;-76
2020/12/12 14:39:23;;;;;;;;;;;8.00;99.90;;;;;;5034991;28;19909;-75
2020/12/12 14:41:52;;;;;;;;;;;8.00;99.90;;;;;;5034770;28;19940;-75
2020/12/12 14:44:20;;;;;;;;;;;7.90;99.90;;;;;;5037736;28;20446;-76
2020/12/12 14:46:48;;;;;;;;;;;7.90;99.90;;;;;;5035194;28;19917;-76
2020/12/12 14:49:16;;;;;;;;;;;8.00;99.90;;;;;;5034748;28;19909;-78
2020/12/12 14:51:42;;;;;;;;;;;7.90;99.90;;;;;;5051026;28;20008;-77
2020/12/12 14:54:08;;;;;;;;;;;8.00;99.90;;;;;;5051545;28;21516;-76
2020/12/12 14:56:33;;;;;;;;;;;7.90;99.90;;;;;;5037552;28;19924;-77
2020/12/12 14:58:59;;;;;;;;;;;7.80;99.90;;;;;;5035374;28;19909;-76
2020/12/12 15:01:25;;;;;;;;;;;7.90;99.90;;;;;;5035677;28;19909;-76
2020/12/12 15:03:50;;;;;;;;;;;7.80;99.90;;;;;;5034873;28;20396;-76
2020/12/12 15:06:16;;;;;;;;;;;7.70;99.90;;;;;;5059156;28;19909;-76
2020/12/12 15:08:42;;;;;;;;;;;7.80;99.90;;;;;;5054347;28;19915;-77